Time;durP1;ratioP1;P1;durP2;ratioP2;P2;SDS_P1;SDS_P2;PMS_P1;PMS_P2;Temp;Humidity;BMP_temperature;BMP_pressure;BME280_temperature;BME280_humidity;BME280_pressure;Samples;Min_cycle;Max_cycle;Signal;HPM_P1;HPM_P2
2022/11/12 00:05:09;;;;;;;12.60;7.85;;;;;;;8.93;78.83;102418.31;4939195;28;20047;-76
2022/11/12 00:15:57;;;;;;;11.95;6.90;;;;;;;8.90;79.63;102425.41;4934547;28;19941;-76
2022/11/12 00:18:24;;;;;;;9.77;5.28;;;;;;;8.88;79.40;102413.19;4928287;28;20094;-76
2022/11/12 00:34:11;;;;;;;9.65;4.22;;;;;;;8.96;78.58;102414.75;4926974;28;20127;-76
2022/11/12 00:36:39;;;;;;;6.97;4.40;;;;;;;8.93;78.30;102410.44;4916520;28;20131;-76
2022/11/12 01:00:33;;;;;;;6.55;2.80;;;;;;;8.99;77.14;102410.28;4924354;29;20054;-77
2022/11/12 01:03:01;;;;;;;5.40;2.95;;;;;;;8.98;76.57;102413.81;4928843;28;20055;-76
2022/11/12 01:05:28;;;;;;;7.15;2.58;;;;;;;9.00;76.41;102406.75;4937788;28;20106;-75
2022/11/12 01:07:55;;;;;;;7.78;3.17;;;;;;;9.01;76.59;102407.66;4929139;28;20064;-76
2022/11/12 01:10:23;;;;;;;8.25;2.72;;;;;;;9.02;76.58;102415.47;4930204;28;20459;-76
2022/11/12 01:12:51;;;;;;;4.97;2.50;;;;;;;9.02;76.54;102410.22;4924895;28;20051;-75
2022/11/12 01:15:19;;;;;;;4.82;2.67;;;;;;;9.02;75.81;102404.97;4925927;28;20068;-76
2022/11/12 01:44:19;;;;;;;8.35;2.90;;;;;;;9.10;74.97;102407.41;4932975;29;20126;-76
2022/11/12 01:47:19;;;;;;;4.80;2.17;;;;;;;9.09;75.00;102403.91;4925344;28;20067;-76
2022/11/12 01:54:09;;;;;;;6.47;2.75;;;;;;;9.12;74.32;102414.34;4922108;28;20062;-75
2022/11/12 01:56:37;;;;;;;4.32;2.28;;;;;;;9.09;75.33;102410.94;4919794;28;20106;-75
2022/11/12 01:59:19;;;;;;;6.70;3.00;;;;;;;9.10;75.15;102405.66;4942809;28;20665;-76
2022/11/12 02:01:47;;;;;;;4.97;2.55;;;;;;;9.14;74.74;102414.34;4931506;28;20063;-76
2022/11/12 02:04:15;;;;;;;5.90;2.63;;;;;;;9.14;75.06;102411.69;4932900;28;20059;-77
2022/11/12 02:06:43;;;;;;;4.20;2.55;;;;;;;9.12;74.61;102409.09;4928163;28;20531;-75
2022/11/12 02:18:21;;;;;;;7.32;3.70;;;;;;;9.00;75.48;102429.53;4924035;29;20059;-76
2022/11/12 02:20:53;;;;;;;6.43;2.67;;;;;;;8.98;75.12;102423.47;4929771;28;20070;-77
2022/11/12 02:36:34;;;;;;;6.25;2.47;;;;;;;8.92;75.04;102427.09;4924083;28;20122;-74
2022/11/12 02:39:02;;;;;;;4.68;2.55;;;;;;;8.90;75.48;102430.66;4918973;28;20068;-75
2022/11/12 02:54:43;;;;;;;5.85;2.50;;;;;;;8.86;75.60;102451.72;4921949;28;20051;-75
2022/11/12 02:57:11;;;;;;;7.45;3.28;;;;;;;8.82;76.02;102449.19;4923879;28;20066;-75
2022/11/12 02:59:38;;;;;;;5.25;2.55;;;;;;;8.80;75.90;102456.28;4927921;28;20060;-76
2022/11/12 03:02:06;;;;;;;8.05;2.75;;;;;;;8.77;75.85;102458.94;4920746;28;20118;-76
2022/11/12 03:04:33;;;;;;;9.50;3.00;;;;;;;8.75;75.94;102463.38;4938145;28;20056;-75
2022/11/12 03:07:01;;;;;;;8.13;3.03;;;;;;;8.75;75.96;102458.13;4931800;28;20479;-75
2022/11/12 03:22:59;;;;;;;7.22;2.75;;;;;;;8.65;75.84;102481.09;4933480;29;20057;-75
2022/11/12 03:25:27;;;;;;;8.18;2.47;;;;;;;8.67;76.47;102473.19;4919669;28;20060;-76
2022/11/12 03:28:00;;;;;;;7.90;3.38;;;;;;;8.68;76.38;102469.66;4929173;29;20048;-76
2022/11/12 03:30:30;;;;;;;6.15;2.60;;;;;;;8.67;76.66;102467.94;4929093;29;20056;-75
2022/11/12 03:32:58;;;;;;;5.57;2.55;;;;;;;8.69;76.24;102471.38;4927567;28;20063;-76
2022/11/12 04:22:03;;;;;;;6.68;3.17;;;;;;;8.31;77.41;102478.25;4922048;29;20054;-76
2022/11/12 04:27:35;;;;;;;6.05;2.85;;;;;;;8.30;77.46;102474.78;4932806;29;20074;-76
2022/11/12 04:30:15;;;;;;;5.38;3.05;;;;;;;8.30;77.91;102480.03;4920419;28;20064;-76
2022/11/12 04:32:49;;;;;;;6.25;3.15;;;;;;;8.30;77.91;102479.16;4938130;28;20096;-75
2022/11/12 04:35:17;;;;;;;7.45;3.20;;;;;;;8.28;77.64;102484.41;4911241;29;20122;-76
2022/11/12 04:37:45;;;;;;;4.43;2.47;;;;;;;8.27;77.39;102481.84;4934318;28;20060;-74
2022/11/12 04:45:03;;;;;;;6.47;3.17;;;;;;;8.26;77.35;102486.22;4869494;28;20060;-75
2022/11/12 04:47:34;;;;;;;7.15;2.78;;;;;;;8.18;77.14;102482.88;4863818;28;20065;-76
2022/11/12 04:50:10;;;;;;;7.82;2.65;;;;;;;8.13;77.91;102485.59;4862044;28;20069;-76
2022/11/12 04:57:57;;;;;;;5.55;2.67;;;;;;;8.17;77.52;102481.16;4884379;28;20202;-76
2022/11/12 05:04:52;;;;;;;9.93;3.63;;;;;;;8.09;77.26;102494.41;4935510;28;20043;-76
2022/11/12 05:07:19;;;;;;;10.93;3.88;;;;;;;8.07;77.69;102485.72;4933670;28;20131;-75
2022/11/12 05:09:47;;;;;;;7.25;2.75;;;;;;;8.08;77.22;102494.44;4956184;28;20122;-75
2022/11/12 05:30:19;;;;;;;6.40;3.65;;;;;;;7.82;78.22;102515.88;4941253;28;20055;-76
2022/11/12 06:17:20;;;;;;;9.35;4.72;;;;;;;7.24;79.29;102517.69;4928546;28;20055;-75
2022/11/12 06:37:30;;;;;;;10.82;4.60;;;;;;;7.19;78.77;102535.22;4939372;28;20051;-76
2022/11/12 07:27:29;;;;;;;7.60;4.88;;;;;;;7.28;79.68;102574.38;4939368;28;20435;-76
2022/11/12 07:43:14;;;;;;;7.97;5.00;;;;;;;7.49;78.79;102598.56;4929073;28;20047;-76
2022/11/12 08:03:16;;;;;;;9.55;4.88;;;;;;;7.79;80.46;102594.59;4937621;28;20126;-77
2022/11/12 08:22:36;;;;;;;9.35;5.57;;;;;;;8.10;78.68;102597.56;4930631;28;20157;-76
2022/11/12 08:25:04;;;;;;;11.88;5.47;;;;;;;8.16;78.92;102592.25;4931629;28;20079;-76
2022/11/12 08:27:32;;;;;;;8.48;4.85;;;;;;;8.21;78.59;102594.78;4933278;28;20120;-76
2022/11/12 08:30:00;;;;;;;11.30;5.35;;;;;;;8.27;78.87;102606.03;4925137;29;20479;-75
2022/11/12 08:41:20;;;;;;;7.88;5.50;;;;;;;8.47;78.21;102597.84;4931596;28;20594;-76
2022/11/12 08:48:13;;;;;;;13.90;5.60;;;;;;;8.70;77.62;102597.41;4935763;29;20468;-76
2022/11/12 08:50:40;;;;;;;14.10;6.40;;;;;;;8.76;77.68;102588.53;4930926;28;20562;-76
2022/11/12 08:53:10;;;;;;;9.85;6.00;;;;;;;8.80;78.00;102596.31;4936964;28;20048;-75
2022/11/12 08:55:38;;;;;;;12.43;6.38;;;;;;;8.84;78.65;102600.63;4929529;28;20554;-75
2022/11/12 08:58:06;;;;;;;11.40;6.55;;;;;;;8.92;78.77;102605.72;4925100;28;20152;-76
2022/11/12 09:00:39;;;;;;;11.27;6.60;;;;;;;8.99;78.61;102603.81;4945758;28;20500;-76
2022/11/12 09:03:11;;;;;;;14.48;5.13;;;;;;;9.07;78.07;102607.16;4930294;28;20095;-75
2022/11/12 09:05:38;;;;;;;13.88;7.03;;;;;;;9.15;77.65;102593.88;4929679;28;20487;-76
2022/11/12 09:08:11;;;;;;;9.70;6.72;;;;;;;9.23;77.57;102603.31;4928464;29;20059;-76
2022/11/12 09:10:39;;;;;;;12.55;6.60;;;;;;;9.33;77.59;102602.22;4929231;28;20052;-76
2022/11/12 09:13:07;;;;;;;9.65;5.88;;;;;;;9.41;77.55;102602.06;4912401;29;20051;-76
2022/11/12 09:15:35;;;;;;;17.83;7.55;;;;;;;9.51;77.31;102611.44;4919198;28;20048;-76
2022/11/12 09:18:07;;;;;;;14.07;6.43;;;;;;;9.62;77.79;102609.41;4931954;28;20058;-74
2022/11/12 09:20:34;;;;;;;14.02;7.35;;;;;;;9.77;77.37;102604.69;4931732;29;20144;-75
2022/11/12 09:23:08;;;;;;;15.27;8.98;;;;;;;9.91;78.62;102610.50;4933775;28;20539;-75
2022/11/12 09:25:36;;;;;;;16.20;8.77;;;;;;;10.03;77.52;102606.69;4931589;29;20052;-76
2022/11/12 09:49:30;;;;;;;20.17;7.95;;;;;;;10.89;84.79;102618.47;4930291;28;20054;-76
2022/11/12 09:57:14;;;;;;;20.45;8.90;;;;;;;11.19;84.21;102594.78;4913681;29;20055;-76
2022/11/12 10:04:15;;;;;;;14.95;7.28;;;;;;;11.47;82.38;102606.19;4911468;28;21043;-76
2022/11/12 10:11:17;;;;;;;14.75;7.95;;;;;;;11.69;82.31;102598.47;4919396;28;20084;-76
2022/11/12 10:14:35;;;;;;;15.82;8.60;;;;;;;11.76;82.01;102601.78;4923234;29;20051;-76
2022/11/12 10:17:43;;;;;;;11.43;6.43;;;;;;;11.87;81.93;102603.19;4917833;28;20098;-75
2022/11/12 10:20:18;;;;;;;13.05;6.90;;;;;;;11.95;81.02;102589.75;4964268;28;20815;-76
2022/11/12 10:23:21;;;;;;;11.40;6.47;;;;;;;12.06;80.79;102595.50;4908684;28;20056;-76
2022/11/12 10:25:50;;;;;;;13.43;7.18;;;;;;;12.16;80.61;102586.38;4917681;28;20467;-76
2022/11/12 10:28:18;;;;;;;17.25;7.75;;;;;;;12.22;80.40;102581.81;4934003;28;20134;-75
2022/11/12 10:30:46;;;;;;;13.57;7.50;;;;;;;12.24;80.57;102596.66;4922966;28;20114;-75
2022/11/12 10:33:14;;;;;;;13.75;7.13;;;;;;;12.30;80.52;102624.66;4923112;29;20094;-77
2022/11/12 10:35:41;;;;;;;14.18;6.70;;;;;;;12.38;80.39;102597.06;4930577;28;20455;-76
2022/11/12 10:51:19;;;;;;;14.55;5.30;;;;;;;13.07;79.26;102593.69;4913559;29;20126;-77
2022/11/12 10:53:46;;;;;;;12.35;6.18;;;;;;;13.20;79.00;102604.66;4952777;28;20067;-77
2022/11/12 10:56:29;;;;;;;14.55;5.40;;;;;;;13.39;78.92;102592.47;5002580;28;20056;-75
2022/11/12 10:59:16;;;;;;;18.75;7.35;;;;;;;13.51;78.45;102585.81;4920407;28;20055;-75
2022/11/12 11:01:45;;;;;;;11.27;5.75;;;;;;;13.61;77.83;102593.34;4944780;28;20056;-75
2022/11/12 11:04:35;;;;;;;11.38;5.93;;;;;;;13.76;77.76;102588.34;4918079;28;20773;-75
2022/11/12 11:07:05;;;;;;;14.77;5.70;;;;;;;14.03;77.15;102602.22;4952926;28;20066;-75
2022/11/12 11:09:33;;;;;;;12.23;6.05;;;;;;;14.19;75.53;102592.72;4936360;28;20534;-76
2022/11/12 11:12:01;;;;;;;12.95;5.45;;;;;;;14.26;73.88;102577.41;4913662;28;20227;-75
2022/11/12 11:14:33;;;;;;;15.02;5.72;;;;;;;14.17;73.47;102576.88;4924530;28;20109;-74
2022/11/12 11:21:49;;;;;;;9.93;5.55;;;;;;;14.54;73.65;102562.03;4938347;28;20137;-76
2022/11/12 11:24:39;;;;;;;9.90;4.88;;;;;;;14.74;73.33;102573.56;4939176;28;20070;-75
2022/11/12 11:27:28;;;;;;;10.27;4.70;;;;;;;14.92;72.79;102578.00;4942616;29;20067;-76
2022/11/12 11:30:05;;;;;;;10.43;4.43;;;;;;;15.14;72.69;102559.31;4965871;28;20047;-76
2022/11/12 11:32:32;;;;;;;9.15;4.07;;;;;;;15.33;71.88;102556.63;4928423;28;20109;-76
2022/11/12 11:35:39;;;;;;;11.35;5.22;;;;;;;15.43;71.04;102565.84;4959889;28;20052;-76
2022/11/12 11:38:15;;;;;;;10.13;4.22;;;;;;;15.64;70.78;102562.19;4912258;28;20723;-76
2022/11/12 11:40:57;;;;;;;13.57;5.10;;;;;;;15.85;69.04;102568.25;4945264;28;20725;-76
2022/11/12 11:43:37;;;;;;;11.35;4.50;;;;;;;16.02;69.12;102556.75;4927738;28;20835;-76
2022/11/12 11:46:14;;;;;;;8.35;4.15;;;;;;;16.19;67.60;102546.09;4942461;28;20052;-76
2022/11/12 11:49:12;;;;;;;12.75;5.40;;;;;;;16.29;65.66;102566.88;4929355;28;20071;-76
2022/11/12 11:51:47;;;;;;;13.82;5.38;;;;;;;16.86;66.81;102560.31;4935128;29;20055;-76
2022/11/12 11:54:45;;;;;;;10.20;5.30;;;;;;;17.56;65.45;102558.16;4916019;28;20040;-76
2022/11/12 11:57:21;;;;;;;16.40;5.22;;;;;;;18.20;64.00;102566.84;4918202;28;20056;-76
2022/11/12 12:00:14;;;;;;;9.25;4.80;;;;;;;18.84;62.52;102564.72;4939376;28;20115;-76
2022/11/12 12:03:03;;;;;;;10.43;4.53;;;;;;;19.41;60.69;102561.94;4922381;28;20046;-76
2022/11/12 12:05:43;;;;;;;12.02;4.63;;;;;;;19.65;59.20;102573.69;4930027;28;20062;-77
2022/11/12 12:08:26;;;;;;;9.52;4.55;;;;;;;19.73;58.70;102562.50;4939515;28;20060;-77
2022/11/12 12:11:12;;;;;;;10.10;5.07;;;;;;;19.88;57.82;102553.44;5001985;28;20098;-77
2022/11/12 12:13:58;;;;;;;9.93;4.50;;;;;;;20.25;56.79;102558.94;4927743;28;20063;-76
2022/11/12 12:55:45;;;;;;;9.63;4.85;;;;;;;21.11;52.65;102534.13;4932048;28;20049;-76
2022/11/12 13:06:49;;;;;;;8.80;5.40;;;;;;;22.45;49.67;102517.66;4926387;28;20542;-76
2022/11/12 13:36:34;;;;;;;11.57;5.13;;;;;;;20.16;53.58;102519.47;4914140;28;20051;-76
2022/11/12 14:25:48;;;;;;;12.13;5.85;;;;;;;17.74;58.38;102518.09;4911047;28;20893;-76
2022/11/12 14:37:05;;;;;;;9.35;5.35;;;;;;;17.30;60.08;102508.22;4908283;28;20695;-76
2022/11/12 14:39:34;;;;;;;12.65;5.65;;;;;;;17.13;60.34;102507.34;4895759;28;20048;-76
2022/11/12 14:42:02;;;;;;;10.23;5.80;;;;;;;16.98;60.33;102504.72;4909930;29;20057;-76
2022/11/12 14:53:19;;;;;;;12.23;5.65;;;;;;;16.48;63.48;102506.50;4910034;28;20269;-76
2022/11/12 15:14:16;;;;;;;13.13;5.78;;;;;;;15.38;66.31;102497.06;4910279;28;20042;-76
2022/11/12 15:25:36;;;;;;;11.80;5.47;;;;;;;15.04;66.85;102497.00;4929949;28;20054;-75
2022/11/12 15:32:22;;;;;;;14.15;7.00;;;;;;;14.65;68.20;102492.66;4921303;28;20133;-75
2022/11/12 15:34:50;;;;;;;13.70;7.25;;;;;;;14.63;68.16;102498.03;4912976;28;20507;-75
2022/11/12 15:37:18;;;;;;;14.98;7.05;;;;;;;14.56;68.26;102493.06;4925069;28;20055;-75
2022/11/12 15:53:07;;;;;;;20.88;9.98;;;;;;;14.20;68.37;102501.72;4949691;28;20119;-75
2022/11/12 16:30:12;;;;;;;18.08;9.20;;;;;;;13.10;70.53;102515.09;4913655;28;20058;-75
2022/11/12 16:59:15;;;;;;;14.88;8.57;;;;;;;12.67;71.31;102515.88;4918455;29;20099;-75
2022/11/12 17:10:15;;;;;;;15.17;9.17;;;;;;;12.48;72.47;102507.78;4915205;28;20617;-76
2022/11/12 17:30:24;;;;;;;18.75;10.35;;;;;;;12.20;72.44;102502.63;4916538;28;20055;-76
2022/11/12 17:32:51;;;;;;;19.83;10.77;;;;;;;12.17;72.86;102500.09;4933375;28;20712;-76
2022/11/12 17:40:35;;;;;;;21.67;11.10;;;;;;;12.12;72.93;102500.28;4911352;28;20057;-75
2022/11/12 18:04:47;;;;;;;18.55;11.05;;;;;;;11.53;75.46;102513.69;4912919;28;20142;-76
2022/11/12 18:15:40;;;;;;;19.30;12.57;;;;;;;11.26;76.38;102512.81;4915410;28;20032;-75
2022/11/12 18:18:07;;;;;;;24.58;13.30;;;;;;;11.23;76.75;102509.41;4911192;29;20052;-76
2022/11/12 18:20:36;;;;;;;18.13;11.82;;;;;;;11.23;76.43;102509.41;4923722;28;20336;-75
2022/11/12 18:23:04;;;;;;;22.92;13.77;;;;;;;11.22;76.62;102508.56;4917366;28;20070;-75
2022/11/12 18:35:25;;;;;;;21.70;13.10;;;;;;;11.09;77.04;102508.06;4915542;28;20051;-77
2022/11/12 18:37:56;;;;;;;22.60;12.88;;;;;;;11.06;76.83;102505.50;4929071;28;20056;-76
2022/11/12 18:40:24;;;;;;;26.88;14.40;;;;;;;11.04;77.22;102499.44;4918690;28;20051;-75
2022/11/12 18:51:42;;;;;;;26.60;15.25;;;;;;;11.00;77.71;102507.50;4917477;28;20054;-75
2022/11/12 18:54:10;;;;;;;23.38;14.68;;;;;;;10.95;77.78;102510.28;4938697;28;20083;-75
2022/11/12 18:57:30;;;;;;;27.70;16.17;;;;;;;10.93;77.65;102501.53;4916811;28;20056;-77
2022/11/12 18:59:58;;;;;;;25.13;16.75;;;;;;;10.84;77.76;102510.56;4923865;28;20051;-76
2022/11/12 19:02:26;;;;;;;27.55;17.50;;;;;;;10.82;77.76;102512.41;4935716;28;20467;-76
2022/11/12 19:04:54;;;;;;;29.77;19.08;;;;;;;10.82;77.96;102512.41;4936641;28;20052;-76
2022/11/12 19:07:22;;;;;;;31.70;18.23;;;;;;;10.79;78.62;102516.91;4926892;28;20052;-76
2022/11/12 19:09:50;;;;;;;23.60;16.95;;;;;;;10.77;78.31;102511.69;4926153;28;20098;-76
2022/11/12 19:12:17;;;;;;;27.50;16.77;;;;;;;10.76;78.77;102512.59;4922903;28;20501;-76
2022/11/12 19:46:06;;;;;;;26.92;17.40;;;;;;;10.59;79.06;102517.50;4932937;28;20056;-77
2022/11/12 19:48:34;;;;;;;26.42;17.33;;;;;;;10.60;79.09;102506.91;4918292;28;20483;-78
2022/11/12 19:51:04;;;;;;;28.90;17.40;;;;;;;10.63;79.37;102513.88;4913210;28;20048;-76
2022/11/12 19:57:58;;;;;;;23.02;16.27;;;;;;;10.69;80.31;102512.81;4915470;28;20155;-76
2022/11/12 20:00:25;;;;;;;25.98;16.98;;;;;;;10.71;80.61;102514.47;4916395;29;20136;-75
2022/11/12 20:02:53;;;;;;;24.77;16.95;;;;;;;10.72;81.02;102515.38;4923321;28;20060;-77
2022/11/12 20:14:16;;;;;;;29.30;16.42;;;;;;;10.70;81.48;102510.13;4879123;29;20044;-76
2022/11/12 20:35:18;;;;;;;36.17;20.23;;;;;;;10.38;82.43;102511.91;4934900;28;20082;-76
2022/11/12 20:56:28;;;;;;;30.90;17.95;;;;;;;10.11;81.76;102502.97;4922326;28;20122;-77
2022/11/12 20:58:57;;;;;;;29.90;18.98;;;;;;;10.06;81.73;102511.91;4930035;28;20052;-76
2022/11/12 21:01:27;;;;;;;25.80;17.80;;;;;;;10.00;82.01;102504.19;4910799;28;20139;-76
2022/11/12 21:03:56;;;;;;;30.63;18.38;;;;;;;10.00;82.46;102512.06;4920522;28;20071;-75
2022/11/12 21:06:27;;;;;;;25.13;17.30;;;;;;;10.02;81.84;102508.47;4913318;28;20064;-77
2022/11/12 21:13:14;;;;;;;27.83;18.05;;;;;;;9.98;82.12;102498.06;4923372;28;20058;-75
2022/11/12 21:15:45;;;;;;;32.05;20.40;;;;;;;9.89;82.58;102501.81;4915187;28;20064;-76
2022/11/12 21:18:13;;;;;;;31.20;19.02;;;;;;;9.88;82.61;102497.47;4926677;28;20052;-77
2022/11/12 21:20:40;;;;;;;29.27;19.27;;;;;;;9.89;82.59;102499.19;4926456;28;20527;-76
2022/11/12 21:23:08;;;;;;;27.35;18.63;;;;;;;9.85;82.79;102494.91;4920524;28;20155;-77
2022/11/12 21:25:37;;;;;;;25.23;17.55;;;;;;;9.82;82.86;102495.00;4922607;28;20040;-76
2022/11/12 21:28:06;;;;;;;28.45;18.00;;;;;;;9.82;82.42;102487.09;4923256;28;20480;-77
2022/11/12 21:30:34;;;;;;;26.50;18.70;;;;;;;9.85;82.23;102492.25;4918449;28;20059;-76
2022/11/12 21:33:01;;;;;;;28.42;19.70;;;;;;;9.86;82.03;102484.34;4921798;28;20067;-76
2022/11/12 21:35:29;;;;;;;27.00;19.27;;;;;;;9.86;82.92;102488.72;4920594;28;20086;-76
2022/11/12 21:37:57;;;;;;;28.60;17.75;;;;;;;9.85;82.59;102492.25;4993777;28;20308;-75
2022/11/12 21:40:25;;;;;;;27.85;18.27;;;;;;;9.89;82.54;102488.66;4922304;28;20148;-76
2022/11/12 21:42:53;;;;;;;32.03;19.27;;;;;;;9.93;83.21;102484.19;4920639;28;20076;-76
2022/11/12 21:45:21;;;;;;;23.80;16.75;;;;;;;9.93;82.86;102482.41;4918071;28;20071;-75
2022/11/12 21:47:49;;;;;;;29.40;18.00;;;;;;;9.98;83.36;102477.88;4921543;28;20056;-76
2022/11/12 21:50:16;;;;;;;31.90;18.35;;;;;;;10.01;82.87;102480.44;4932847;28;20088;-76
2022/11/12 21:52:45;;;;;;;27.75;17.73;;;;;;;10.05;82.98;102481.22;4916936;28;20074;-75
2022/11/12 21:55:12;;;;;;;26.85;16.60;;;;;;;10.01;83.43;102471.69;4929694;28;20399;-76
2022/11/12 21:57:40;;;;;;;27.58;16.77;;;;;;;10.01;83.46;102469.91;4915758;28;20151;-76
2022/11/12 22:00:12;;;;;;;23.67;16.05;;;;;;;10.00;83.34;102468.19;4916758;28;20131;-76
2022/11/12 22:02:59;;;;;;;23.75;15.63;;;;;;;10.03;83.74;102465.47;4927387;28;20574;-76
2022/11/12 22:05:27;;;;;;;23.52;16.33;;;;;;;10.08;84.04;102474.09;4918007;28;20066;-74
2022/11/12 22:07:54;;;;;;;23.13;14.98;;;;;;;10.14;83.98;102473.94;4915185;28;20059;-77
2022/11/12 22:10:22;;;;;;;23.77;15.65;;;;;;;10.22;85.82;102464.97;4921867;28;20062;-75
2022/11/12 22:12:50;;;;;;;21.48;15.40;;;;;;;10.26;86.00;102469.25;4917606;28;20084;-75
2022/11/12 22:15:38;;;;;;;25.35;15.68;;;;;;;10.28;86.31;102463.06;4914953;28;20122;-76
2022/11/12 22:18:06;;;;;;;23.83;15.73;;;;;;;10.33;86.66;102462.94;4918290;28;20058;-75
2022/11/12 22:20:33;;;;;;;25.58;15.05;;;;;;;10.34;86.78;102457.59;4923334;28;20147;-75
2022/11/12 22:23:01;;;;;;;28.25;15.48;;;;;;;10.35;86.50;102455.84;4926325;28;20547;-77
2022/11/12 22:25:29;;;;;;;23.30;15.20;;;;;;;10.35;86.23;102459.34;4922337;28;20198;-75
2022/11/12 22:28:11;;;;;;;23.27;15.90;;;;;;;10.33;85.51;102452.41;4916332;28;20057;-75
2022/11/12 22:31:36;;;;;;;27.85;16.92;;;;;;;10.33;85.63;102453.25;4907029;28;20048;-77
2022/11/12 22:34:39;;;;;;;22.67;15.98;;;;;;;10.33;85.83;102445.38;4917521;28;20067;-77
2022/11/12 22:37:12;;;;;;;23.50;15.25;;;;;;;10.34;85.50;102447.09;4913903;28;20067;-77
2022/11/12 22:39:39;;;;;;;24.27;15.95;;;;;;;10.36;85.27;102453.19;4915815;29;20055;-76
2022/11/12 22:42:08;;;;;;;24.20;17.38;;;;;;;10.37;85.38;102439.09;4916510;28;20048;-76
2022/11/12 22:44:35;;;;;;;26.95;17.63;;;;;;;10.38;85.22;102435.56;4917935;29;20102;-75
2022/11/12 22:47:03;;;;;;;23.75;17.05;;;;;;;10.38;85.48;102440.81;4916964;28;20825;-76
2022/11/12 22:49:30;;;;;;;26.38;16.23;;;;;;;10.42;85.85;102435.47;4926748;28;20160;-76
2022/11/12 22:51:58;;;;;;;23.55;15.93;;;;;;;10.43;85.78;102432.78;4911304;28;20110;-76
2022/11/12 22:54:25;;;;;;;25.92;16.33;;;;;;;10.43;85.88;102432.78;4915912;29;20056;-75
2022/11/12 22:56:53;;;;;;;31.88;18.13;;;;;;;10.45;86.24;102433.63;4918842;28;20081;-77
2022/11/12 22:59:20;;;;;;;21.55;16.38;;;;;;;10.48;86.94;102438.78;4913360;28;20060;-76
2022/11/12 23:01:48;;;;;;;23.20;16.92;;;;;;;10.46;86.15;102437.13;4914408;28;20047;-77
2022/11/12 23:04:15;;;;;;;26.73;17.98;;;;;;;10.45;86.23;102443.28;4918195;28;20056;-76
2022/11/12 23:06:43;;;;;;;23.10;16.50;;;;;;;10.46;86.23;102430.06;4911691;28;20414;-76
2022/11/12 23:09:15;;;;;;;26.63;16.55;;;;;;;10.47;85.39;102433.56;4927175;28;20049;-76
2022/11/12 23:11:42;;;;;;;25.48;17.60;;;;;;;10.45;85.54;102425.72;4926774;28;20094;-77
2022/11/12 23:14:10;;;;;;;25.70;17.58;;;;;;;10.46;85.67;102424.81;4918966;28;20075;-76
2022/11/12 23:16:37;;;;;;;26.10;16.73;;;;;;;10.48;86.06;102425.63;4925334;28;20063;-76
2022/11/12 23:23:24;;;;;;;24.45;16.52;;;;;;;10.53;85.99;102422.84;4926361;29;20190;-76
2022/11/12 23:25:52;;;;;;;23.52;17.02;;;;;;;10.53;86.67;102421.06;4922341;29;20147;-76
2022/11/12 23:45:41;;;;;;;22.98;14.75;;;;;;;10.55;86.25;102418.41;4926146;28;20197;-76
